Strona główna
METAR-TAF:

METAR-TAF

Lotnisko :

Port lotniczy Damaszek

Damaszek, Syria

Szerokość geograficzna: 33-25N, Długość geograficzna: 036-31E, wysokość: 608 m

Aktualna obserwacja pogody

Raport powstał 9 minut temu, godzina 12:00 UTC
Wiatr 12 kt od południowy zachód
Temperatura 38°C
Wilgotność 13%
Ciśnienie 1009 hPa
Widzialność 10 km lub więcej
Brak chmur poniżej 1500 m i brak chmur cumulonimbus

METAR: OSDI 161200Z 23012KT CAVOK 38/05 Q1009

czas: 15:09 (12:09 UTC)

Prognoza

Raport powstał 2 godziny i 9 minut temu, godzina 10:00 UTC
Prognoza ważna od 16 godzina 12 UTC do 17 godzina 18 UTC
Wiatr 15 kt od zachodnio-południowy zachód w porywach dochodzący do 25 kt
Widzialność 10 km lub więcej
Mało chmury na wysokości 3000 ft
Przejściowo
od 16 godzina 18 UTC do 17 godzina 12 UTC
Wiatr 10 kt od południowy zachód
Widzialność 10 km lub więcej
Brak chmur poniżej 1500 m i brak chmur cumulonimbus

TAF: OSDI 161000Z 1612/1718 24015G25KT 9999 FEW030 TEMPO 1618/1712 22010KT CAVOK

Obserwacja i prognoza pogody dla ponad 4000 lotnisk (raport METAR i TAF).

Dostępne stacje oznaczono żółtymi i czerwonymi punktami na mapie.

Najedź kursorem aby zobaczyć nazwę stacji.

Kliknij aby zobaczyć obserwacje i prognozy pogody.

Aby zmienić mapę: kliknij na zielony przycisk z czarnym krzyżykiem, aby powiększyć; na zielony przycisk z myślnikiem, aby pomniejszyć; na zielone strzałki, aby przejść do map sąsiednich.


METAR-TAF: